New Haven, IN (46774)

5:30 PM EDT on August 27, 2015 (GMT -0400)
Rivergreenway | | Change Station
CLOSE
Current Station
Personal Weather Station
Location: New Haven, IN
Elevation: 771 ft
Nearby Weather Stations

Elev 771 ft 41.09 °N, 85.02 °W | Updated 7 seconds ago

Overcast
Overcast
72.2 °F
Feels Like 76 °F
N
1.5
Wind Variable Wind from ENE
Gusts 1.5 mph

Today
High -- | Low -- °F
--% Chance of Precip.
Yesterday
High -- | Low -- °F
Precip. -- in
7:01 AM 8:20 PM
Waxing Gibbous, 95% visible
Pressure 30.17 in
Visibility 10.0 miles
Clouds Mostly Cloudy 4100 ft
Heat Index 76 °F
Dew Point 60 °F
Humidity 63%
Rainfall 0.00 in
Snow Depth Not available.
UV 2 out of 12
Pollen 9.60 out of 12
Air Quality Not available.
Flu Activity Not available.
METAR KFWA 272054Z 00000KT 10SM BKN041 22/13 A3017 RMK AO2 SLP216 T02220128 58001
Pressure 30.17 in
Visibility 10.0 miles
Clouds Mostly Cloudy 4100 ft
Heat Index 76 °F
Dew Point 60 °F
Humidity 63%
Rainfall 0.00 in
Snow Depth Not available.
UV 2 out of 12
Pollen 9.60 out of 12
Air Quality Not available.
Flu Activity Not available.
METAR KFWA 272054Z 00000KT 10SM BKN041 22/13 A3017 RMK AO2 SLP216 T02220128 58001

10-Day Weather Forecast

×

Almanac

Astronomy

Aug. 27, 2015 Rise Set
Actual Time
Civil Twilight
Nautical Twilight
Astronomical Twilight
Moon
Length of Visible Light
Length of Day
Tomorrow will be .
, % of the Moon is Illuminated

Today's Extremes

State Highs State Lows

Community

WunderPhotos

Upload Photos

1,850,236 photos uploaded!

WunderBlogs® & News

Nearby

Air Quality

  Air Quality AQ Index Pollutant
Not available.

Snow Depth

Station Depth Elevation

Earthquake Activity

City Distance Mag. Time & Date
Minimum magnitude displayed is 2.5.

Coastal Water Temperatures

Place Temperature

Stations

Nearby Weather Stations

Station Location Temp. Windchill Dew Point Humidity Wind Precip. Elev Updated Type